Terminal Aerodrome Forecast
Issued by NWS

Home | Current Version | Previous Version | Text Only | Print | Product List | Glossary On
Versions: 1 2 3 4 5 6 7 8 9 10 11 12 13 14 15
000
FTUS46 KSEW 202300
TAFPAE
TAF
KPAE 202320Z 2100/2124 19006KT P6SM SCT070 SCT120
     FM210400 14003KT P6SM SCT070 SCT120
     FM211200 13004KT P6SM BKN120
     FM211800 21007KT P6SM BKN060=

USA.gov is the U.S. government's official web portal to all federal, state and local government web resources and services.